METAR Data
IDs: Format: Raw Decoded Include TAF

Data at: 0138 UTC 12 May 2021

KGWB 120115Z AUTO 28004KT 10SM CLR 07/00 A3032 RMK AO2
KGWB 120055Z AUTO 29004KT 10SM CLR 07/00 A3031 RMK AO2
KGWB 120035Z AUTO 28006KT 10SM CLR 08/00 A3030 RMK AO2
KGWB 120015Z AUTO 29005KT 10SM CLR 10/M01 A3030 RMK AO2
KGWB 112355Z AUTO 30007KT 10SM CLR 10/M01 A3029 RMK AO2
KGWB 112335Z AUTO 30006KT 10SM CLR 11/M01 A3029 RMK AO2
KGWB 112315Z AUTO 33008KT 10SM CLR 11/M01 A3028 RMK AO2
KGWB 112255Z AUTO 31006KT 10SM CLR 11/M01 A3028 RMK AO2
KGWB 112235Z AUTO 32007KT 10SM CLR 11/M01 A3028 RMK AO2
KGWB 112215Z AUTO 30008KT 275V335 10SM CLR 11/M01 A3028 RMK AO2
KGWB 112155Z AUTO 32009G14KT 10SM CLR 11/M02 A3028 RMK AO2
KGWB 112135Z AUTO 31009G16KT 10SM SCT060 12/M01 A3027 RMK AO2
KGWB 112115Z AUTO 30012G15KT 10SM SCT060 12/M01 A3027 RMK AO2
KGWB 112055Z AUTO 32012G16KT 10SM SCT060 12/M01 A3027 RMK AO2
KGWB 112035Z AUTO 32009KT 10SM SCT060 12/M01 A3028 RMK AO2
KGWB 112015Z AUTO 32009G19KT 10SM SCT070 12/M01 A3028 RMK AO2
KGWB 111955Z AUTO 30009G15KT 10SM SCT070 12/00 A3028 RMK AO2
KGWB 111935Z AUTO 30013G17KT 265V345 10SM SCT065 SCT070 11/M01 A3028 RMK AO2
KGWB 111915Z AUTO 32010G17KT 10SM BKN065 BKN110 12/00 A3028 RMK AO2
KGWB 111900Z AUTO 30011G16KT 10SM SCT065 BKN075 11/M01 A3028 RMK AO2
KGWB 111835Z AUTO 28012G17KT 10SM SCT065 12/00 A3029 RMK AO2
KGWB 111815Z AUTO 31012G20KT 10SM SCT065 11/M01 A3030 RMK AO2
KGWB 111755Z AUTO 29012G19KT 10SM BKN050 11/00 A3030 RMK AO2
KGWB 111735Z AUTO 33009G19KT 10SM SCT050 10/M01 A3031 RMK AO2
KGWB 111715Z AUTO 33012G17KT 10SM BKN050 10/00 A3031 RMK AO2
KGWB 111655Z AUTO 32010G18KT 295V355 10SM BKN050 10/00 A3031 RMK AO2
KGWB 111635Z AUTO 35008G19KT 10SM SCT050 10/00 A3031 RMK AO2
KGWB 111615Z AUTO 33010G21KT 10SM SCT050 10/M01 A3032 RMK AO2
KGWB 111555Z AUTO 32009G16KT 10SM SCT050 10/00 A3031 RMK AO2
KGWB 111535Z AUTO 34007G16KT 10SM SCT050 10/00 A3031 RMK AO2
KGWB 111515Z AUTO 35010G16KT 315V015 10SM SCT050 09/00 A3031 RMK AO2
KGWB 111455Z AUTO 32007G15KT 10SM CLR 08/M01 A3031 RMK AO2
KGWB 111435Z AUTO 32012G16KT 295V355 10SM CLR 08/00 A3031 RMK AO2
KGWB 111415Z AUTO 36010KT 10SM CLR 08/00 A3031 RMK AO2
KGWB 111355Z AUTO 34012G16KT 10SM CLR 07/00 A3030 RMK AO2
KGWB 111335Z AUTO 33011KT 10SM CLR 07/00 A3030 RMK AO2
KGWB 111315Z AUTO 35007KT 10SM CLR 06/00 A3030 RMK AO2
KGWB 111255Z AUTO 36010G16KT 10SM CLR 06/00 A3029 RMK AO2
KGWB 111235Z AUTO 36006KT 10SM CLR 05/00 A3029 RMK AO2
KGWB 111215Z AUTO 34004KT 10SM CLR 05/00 A3029 RMK AO2
KGWB 111155Z AUTO 34004KT 10SM CLR 04/00 A3028 RMK AO2
KGWB 111135Z AUTO 34004KT 10SM CLR 03/00 A3027 RMK AO2
KGWB 111115Z AUTO 35005KT 10SM CLR 02/00 A3026 RMK AO2
KGWB 111055Z AUTO 34005KT 10SM SCT110 02/00 A3025 RMK AO2
KGWB 111030Z AUTO 33004KT 10SM CLR 02/00 A3025 RMK AO2
KGWB 111015Z AUTO 34006KT 10SM CLR 02/00 A3024 RMK AO2
KGWB 110955Z AUTO 33005KT 10SM BKN120 02/00 A3024 RMK AO2
KGWB 110935Z AUTO 34005KT 10SM OVC120 03/00 A3023 RMK AO2
KGWB 110915Z AUTO 34004KT 10SM SCT095 BKN120 03/00 A3022 RMK AO2
KGWB 110855Z AUTO 34006KT 10SM SCT095 03/00 A3021 RMK AO2
KGWB 110835Z AUTO 34006KT 10SM SCT120 03/00 A3021 RMK AO2
KGWB 110815Z AUTO 33006KT 10SM CLR 03/00 A3020 RMK AO2
KGWB 110755Z AUTO 33005KT 10SM CLR 03/M01 A3020 RMK AO2
KGWB 110735Z AUTO 34006KT 10SM CLR 03/M01 A3019 RMK AO2
KGWB 110715Z AUTO 33007KT 10SM CLR 04/M01 A3019 RMK AO2
KGWB 110655Z AUTO 33005KT 10SM CLR 04/M01 A3020 RMK AO2
KGWB 110635Z AUTO 33006KT 10SM CLR 05/M01 A3020 RMK AO2
KGWB 110615Z AUTO 33004KT 10SM CLR 05/M01 A3019 RMK AO2
KGWB 110555Z AUTO 32006KT 10SM CLR 05/M01 A3019 RMK AO2
KGWB 110535Z AUTO 32006KT 10SM SCT120 06/M02 A3019 RMK AO2
KGWB 110515Z AUTO 32005KT 10SM SCT100 06/M01 A3019 RMK AO2
KGWB 110455Z AUTO 32006KT 10SM BKN100 06/M01 A3019 RMK AO2
KGWB 110435Z AUTO 31005KT 10SM OVC100 06/M01 A3019 RMK AO2
KGWB 110415Z AUTO 31006KT 10SM BKN100 07/M01 A3018 RMK AO2
KGWB 110355Z AUTO 31006KT 10SM SCT100 BKN110 07/00 A3018 RMK AO2
KGWB 110335Z AUTO 32005KT 10SM BKN100 07/01 A3018 RMK AO2
KGWB 110315Z AUTO 31006KT 10SM SCT100 08/01 A3018 RMK AO2
KGWB 110255Z AUTO 31005KT 10SM BKN100 08/02 A3017 RMK AO2
KGWB 110235Z AUTO 31007KT 10SM BKN100 08/02 A3017 RMK AO2
KGWB 110215Z AUTO 32005KT 10SM BKN100 08/03 A3016 RMK AO2
KGWB 110155Z AUTO 31003KT 10SM BKN110 08/03 A3015 RMK AO2
KGWB 110135Z AUTO 33003KT 10SM BKN120 08/03 A3015 RMK AO2
KGWB 110115Z AUTO 00000KT 10SM SCT085 08/03 A3015 RMK AO2
KGWB 110055Z AUTO 00000KT 10SM CLR 08/03 A3015 RMK AO2
KGWB 110035Z AUTO 35006KT 10SM SCT060 09/03 A3014 RMK AO2
KGWB 110015Z AUTO 35005KT 10SM BKN060 10/03 A3013 RMK AO2
KGWB 102355Z AUTO 33003KT 10SM BKN060 BKN120 10/02 A3013 RMK AO2
KGWB 102335Z AUTO 31005KT 10SM SCT120 11/02 A3013 RMK AO2
KGWB 102315Z AUTO 35007KT 10SM CLR 11/03 A3012 RMK AO2
KGWB 102255Z AUTO 35006KT 10SM CLR 12/03 A3012 RMK AO2
KGWB 102235Z AUTO 30007KT 10SM SCT060 SCT080 12/03 A3012 RMK AO2
KGWB 102215Z AUTO 33008KT 10SM SCT048 OVC060 12/03 A3012 RMK AO2
KGWB 102155Z AUTO 27008KT 10SM BKN048 BKN050 13/03 A3012 RMK AO2
KGWB 102135Z AUTO 30007KT 10SM SCT048 SCT070 12/03 A3011 RMK AO2
KGWB 102115Z AUTO 30006KT 10SM BKN046 BKN060 BKN065 12/03 A3012 RMK AO2
KGWB 102055Z AUTO 27007KT 10SM BKN046 OVC060 12/03 A3012 RMK AO2
KGWB 102035Z AUTO 29006KT 10SM BKN048 BKN060 12/03 A3012 RMK AO2
KGWB 102015Z AUTO 28007G14KT 10SM BKN050 BKN070 12/03 A3012 RMK AO2
KGWB 101955Z AUTO 29010G16KT 10SM BKN050 BKN070 12/03 A3012 RMK AO2
KGWB 101935Z AUTO 27008KT 225V295 10SM SCT050 BKN060 BKN075 12/03 A3012 RMK AO2
KGWB 101915Z AUTO 29009KT 10SM SCT048 BKN070 12/02 A3013 RMK AO2
KGWB 101855Z AUTO 26007G14KT 10SM SCT050 SCT065 12/03 A3012 RMK AO2
KGWB 101835Z AUTO 29014KT 10SM SCT048 SCT065 13/02 A3012 RMK AO2
KGWB 101815Z AUTO 28011G16KT 10SM -RA OVC044 12/03 A3013 RMK AO2
KGWB 101755Z AUTO 28010G16KT 10SM -RA SCT045 OVC060 11/03 A3013 RMK AO2
KGWB 101735Z AUTO 30007KT 10SM BKN060 12/03 A3012 RMK AO2
KGWB 101715Z AUTO 25004KT 10SM SCT042 SCT070 12/05 A3012 RMK AO2
KGWB 101655Z AUTO 26006KT 10SM SCT035 SCT055 BKN070 12/05 A3012 RMK AO2
KGWB 101635Z AUTO 22004KT 10SM SCT035 SCT043 OVC070 12/05 A3012 RMK AO2
KGWB 101615Z AUTO 27003KT 10SM SCT035 SCT070 SCT120 12/05 A3012 RMK AO2
KGWB 101555Z AUTO 29004KT 10SM SCT029 SCT120 12/06 A3012 RMK AO2
KGWB 101535Z AUTO 32003KT 10SM SCT029 SCT070 11/05 A3011 RMK AO2
KGWB 101515Z AUTO 25004KT 10SM BKN070 10/05 A3011 RMK AO2
KGWB 101455Z AUTO 28003KT 10SM BKN070 10/05 A3011 RMK AO2
KGWB 101435Z AUTO 27005KT 10SM SCT070 10/05 A3012 RMK AO2
KGWB 101415Z AUTO 00000KT 10SM CLR 09/05 A3011 RMK AO2
KGWB 101355Z AUTO 00000KT 10SM CLR 08/05 A3010 RMK AO2